KSRQ

Sarasota / Bradenton International Airport

Sarasota/Bradenton, Florida, USA
METAR KSRQ 170053Z 33005KT 10SM SCT035 17/13 A3014 RMK AO2 SLP206 T01670133
Observed Flight Rules
Dec-17 @ 00:53 UTC (10 minutes ago) Visual Flight Rules
Wind Visibility Clouds
330° at 5 knots 10 miles
  • Scattered at 3,500' AGL
Temperatures Readings
Current 17°C / 63°F
Dewpoint 13°C / 55°F
Humidity 77%
Altimeter 30.14" Hg
Pressure 1020.6 hPa
Elevation 18
METAR KSRQ 170053Z 33005KT 10SM SCT035 17/13 A3014 RMK AO2 SLP206 T01670133
Observed Flight Rules
Dec-17 @ 00:53 UTC
(10 minutes ago)
VFR
Wind Visibility
330° at 5 knots 10 miles
Clouds
  • Scattered at 3,500' AGL
Temperature Dewpoint
17°C / 63°F 13°C / 55°F
Humidity Altimeter Pressure
77% 30.14" Hg 1020.6 hPa